Hendricks, Minnesota
Current Conditions -  °F | °C
As of 2:53 PM on Tuesday 21 Oct 2014 (Local Time) from KCNB Reporting Station
Clear Clear  
Wind Chill: 73°   Ceiling: Unl
Heat Index: 73°   Visibility: 10mi
Dew Point: 41°   Wind: 17mph
Humidity: 31%   Direction: 140°SE
Pressure: 29.99"   Gusts: 24mph
Location:  44.51°N, 96.42°W
Report Text: KCNB 211953Z AUTO 14015G21KT 10SM CLR 23/05 A2999 RMK AO2 T02300048
Loading
Personal Weather Stations






























Interactive Weather Map
Tropical Storm Tracking
New forecast layout! Learn more

10-Day Weather Forecast

Advertisements
Track Severe Weather on mobile